createdAt,value
2022-09-21T00:01:12.337Z,15.00
2022-09-21T00:03:39.558Z,15.04
2022-09-21T00:06:06.454Z,15.06
2022-09-21T00:08:33.130Z,15.09
2022-09-21T00:11:00.212Z,15.13
2022-09-21T00:13:28.227Z,15.13
2022-09-21T00:15:55.525Z,15.15
2022-09-21T00:18:22.351Z,15.17
2022-09-21T00:20:49.261Z,15.24
2022-09-21T00:23:15.798Z,15.28
2022-09-21T00:25:42.199Z,15.29
2022-09-21T00:28:08.647Z,15.32
2022-09-21T00:30:35.250Z,15.32
2022-09-21T00:33:01.687Z,15.33
2022-09-21T00:35:28.107Z,15.29
2022-09-21T00:37:54.695Z,15.30
2022-09-21T00:40:21.201Z,15.30
2022-09-21T00:42:47.969Z,15.31
2022-09-21T00:45:21.173Z,15.25
2022-09-21T00:47:51.054Z,15.23
2022-09-21T00:50:18.490Z,15.20
2022-09-21T00:52:45.822Z,15.19
2022-09-21T00:55:14.169Z,15.11
2022-09-21T00:57:41.248Z,15.06
2022-09-21T01:00:10.834Z,15.06
2022-09-21T01:02:37.655Z,15.10
2022-09-21T01:05:04.596Z,15.07
2022-09-21T01:07:31.482Z,15.08
2022-09-21T01:09:58.792Z,15.07
2022-09-21T01:12:37.505Z,15.04
2022-09-21T01:15:22.197Z,15.04
2022-09-21T01:17:48.711Z,15.05
2022-09-21T01:20:20.528Z,15.05
2022-09-21T01:23:05.306Z,15.03
2022-09-21T01:25:37.802Z,15.04
2022-09-21T01:28:09.022Z,15.04
2022-09-21T01:30:36.082Z,15.06
2022-09-21T01:33:04.608Z,15.04
2022-09-21T01:35:32.324Z,15.12
2022-09-21T01:38:00.223Z,15.09
2022-09-21T01:40:37.956Z,15.10
2022-09-21T01:43:05.111Z,15.17
2022-09-21T01:45:35.629Z,15.22
2022-09-21T01:48:02.134Z,15.20
2022-09-21T01:50:29.869Z,15.23
2022-09-21T01:52:58.393Z,15.15
2022-09-21T01:55:28.272Z,15.20
2022-09-21T01:57:56.161Z,15.17
2022-09-21T02:00:22.584Z,15.13
2022-09-21T02:02:50.676Z,15.12
2022-09-21T02:05:18.165Z,15.07
2022-09-21T02:07:47.974Z,15.08
2022-09-21T02:10:18.720Z,15.13
2022-09-21T02:12:46.057Z,15.13
2022-09-21T02:15:12.462Z,15.14
2022-09-21T02:17:41.991Z,15.13
2022-09-21T02:20:18.522Z,15.07
2022-09-21T02:22:54.897Z,15.13
2022-09-21T02:25:23.667Z,15.13
2022-09-21T02:27:57.006Z,15.05
2022-09-21T02:30:24.823Z,15.10
2022-09-21T02:33:06.379Z,15.10
2022-09-21T02:35:32.815Z,15.07
2022-09-21T02:38:02.518Z,15.04
2022-09-21T02:40:30.057Z,14.98
2022-09-21T02:43:01.431Z,14.96
2022-09-21T02:45:29.038Z,14.94
2022-09-21T02:48:03.515Z,14.94
2022-09-21T02:50:33.533Z,14.97
2022-09-21T02:53:00.026Z,14.99
2022-09-21T02:55:26.634Z,14.97
2022-09-21T02:57:53.089Z,14.96
2022-09-21T03:00:19.574Z,14.96
2022-09-21T03:02:46.241Z,14.84
2022-09-21T03:05:13.087Z,14.86
2022-09-21T03:07:39.910Z,14.77
2022-09-21T03:10:08.221Z,14.75
2022-09-21T03:12:36.867Z,14.78
2022-09-21T03:15:03.506Z,14.85
2022-09-21T03:17:29.959Z,14.82
2022-09-21T03:19:56.611Z,14.80
2022-09-21T03:22:24.074Z,14.75
2022-09-21T03:24:50.651Z,14.76
2022-09-21T03:27:17.924Z,14.74
2022-09-21T03:29:44.514Z,14.70
2022-09-21T03:32:14.457Z,14.66
2022-09-21T03:34:40.939Z,14.68
2022-09-21T03:37:07.982Z,14.66
2022-09-21T03:39:35.069Z,14.67
2022-09-21T03:42:02.627Z,14.68
2022-09-21T03:44:29.507Z,14.66
2022-09-21T03:46:56.608Z,14.60
2022-09-21T03:49:23.065Z,14.56
2022-09-21T03:51:49.507Z,14.50
2022-09-21T03:54:15.902Z,14.48
2022-09-21T03:56:42.291Z,14.46
2022-09-21T03:59:13.294Z,14.49
2022-09-21T04:01:40.730Z,14.47
2022-09-21T04:04:07.234Z,14.41
2022-09-21T04:06:34.006Z,14.41
2022-09-21T04:09:02.938Z,14.40
2022-09-21T04:11:30.136Z,14.34
2022-09-21T04:13:57.092Z,14.39
2022-09-21T04:16:24.566Z,14.34
2022-09-21T04:18:53.078Z,14.30
2022-09-21T04:21:19.593Z,14.26
2022-09-21T04:23:46.052Z,14.31
2022-09-21T04:26:31.799Z,14.30
2022-09-21T04:28:58.422Z,14.34
2022-09-21T04:31:27.367Z,14.36
2022-09-21T04:33:54.561Z,14.39
2022-09-21T04:36:24.433Z,14.44
2022-09-21T04:38:50.939Z,14.50
2022-09-21T04:41:17.795Z,14.56
2022-09-21T04:43:47.996Z,14.48
2022-09-21T04:46:15.729Z,14.56
2022-09-21T04:48:45.044Z,14.55
2022-09-21T04:51:11.585Z,14.58
2022-09-21T04:53:38.359Z,14.60
2022-09-21T04:56:04.969Z,14.63
2022-09-21T04:58:31.516Z,14.64
2022-09-21T05:00:57.924Z,14.56
2022-09-21T05:03:24.794Z,14.61
2022-09-21T05:05:51.748Z,14.56
2022-09-21T05:08:18.401Z,14.48
2022-09-21T05:10:44.814Z,14.53
2022-09-21T05:13:11.260Z,14.57
2022-09-21T05:15:39.257Z,14.61
2022-09-21T05:18:06.155Z,14.66
2022-09-21T05:20:32.607Z,14.75
2022-09-21T05:23:02.468Z,14.82
2022-09-21T05:25:29.041Z,14.92
2022-09-21T05:27:59.501Z,15.00
2022-09-21T05:30:26.149Z,15.14
2022-09-21T05:32:57.618Z,15.20
2022-09-21T05:35:33.116Z,15.22
2022-09-21T05:38:02.277Z,15.33
2022-09-21T05:40:30.877Z,15.41
2022-09-21T05:42:58.454Z,15.41
2022-09-21T05:45:25.036Z,15.51
2022-09-21T05:47:54.528Z,15.67
2022-09-21T05:50:34.571Z,15.86
2022-09-21T05:53:01.039Z,15.80
2022-09-21T05:55:36.055Z,15.77
2022-09-21T05:58:21.489Z,15.83
2022-09-21T06:00:47.875Z,15.99
2022-09-21T06:03:20.469Z,16.23
2022-09-21T06:05:46.971Z,16.63
2022-09-21T06:08:13.411Z,16.61
2022-09-21T06:10:39.808Z,16.76
2022-09-21T06:13:06.203Z,16.81
2022-09-21T06:15:33.774Z,16.79
2022-09-21T06:18:00.282Z,16.76
2022-09-21T06:20:26.686Z,16.76
2022-09-21T06:22:53.106Z,16.76
2022-09-21T06:25:20.406Z,16.92
2022-09-21T06:27:46.881Z,17.73
2022-09-21T06:30:13.672Z,18.60
2022-09-21T06:32:40.112Z,19.62
2022-09-21T06:35:06.695Z,20.22
2022-09-21T06:37:33.159Z,20.67
2022-09-21T06:39:59.656Z,21.10
2022-09-21T06:42:27.077Z,21.49
2022-09-21T06:44:53.493Z,21.78
2022-09-21T06:47:20.049Z,22.20
2022-09-21T06:49:46.468Z,22.48
2022-09-21T06:52:12.982Z,22.57
2022-09-21T06:54:41.019Z,22.87
2022-09-21T06:57:07.919Z,23.15
2022-09-21T06:59:34.519Z,23.20
2022-09-21T07:02:01.144Z,23.27
2022-09-21T07:04:29.276Z,23.56
2022-09-21T07:06:56.999Z,23.87
2022-09-21T07:12:10.057Z,24.39
2022-09-21T07:14:36.494Z,24.38
2022-09-21T07:17:02.889Z,24.72
2022-09-21T07:19:29.424Z,24.81
2022-09-21T07:21:56.109Z,25.13
2022-09-21T07:24:22.568Z,25.26
2022-09-21T07:26:49.405Z,24.84
2022-09-21T07:29:15.909Z,24.62
2022-09-21T07:31:45.537Z,25.21
2022-09-21T07:34:12.082Z,25.46
2022-09-21T07:36:38.495Z,25.64
2022-09-21T07:39:05.236Z,26.23
2022-09-21T07:41:31.690Z,26.25
2022-09-21T07:43:58.150Z,25.97
2022-09-21T07:46:25.036Z,26.00
2022-09-21T07:48:53.316Z,26.07
2022-09-21T07:51:19.720Z,26.39
2022-09-21T07:53:46.262Z,26.61
2022-09-21T07:56:13.539Z,26.68
2022-09-21T07:58:58.706Z,27.35
2022-09-21T08:01:25.314Z,27.63
2022-09-21T08:03:52.038Z,27.73
2022-09-21T08:06:19.107Z,28.18
2022-09-21T08:08:48.103Z,28.52
2022-09-21T08:11:19.886Z,28.52
2022-09-21T08:13:46.379Z,28.75
2022-09-21T08:16:12.819Z,28.56
2022-09-21T08:18:39.869Z,28.73
2022-09-21T08:21:06.395Z,28.84
2022-09-21T08:23:32.982Z,29.02
2022-09-21T08:26:00.907Z,28.49
2022-09-21T08:28:33.941Z,28.22
2022-09-21T08:31:03.961Z,29.30
2022-09-21T08:33:30.420Z,28.70
2022-09-21T08:35:57.860Z,29.15
2022-09-21T08:38:26.947Z,28.71
2022-09-21T08:40:53.444Z,28.79
2022-09-21T08:43:29.546Z,28.77
2022-09-21T08:45:56.057Z,29.07
2022-09-21T08:48:28.294Z,29.43
2022-09-21T08:50:57.330Z,29.45
2022-09-21T08:53:33.585Z,29.87
2022-09-21T08:56:00.027Z,29.74
2022-09-21T08:58:27.274Z,29.86
2022-09-21T09:00:57.627Z,30.11
2022-09-21T09:03:41.244Z,30.54
2022-09-21T09:06:17.266Z,30.59
2022-09-21T09:09:02.493Z,30.50
2022-09-21T09:11:28.837Z,30.66
2022-09-21T09:13:55.899Z,31.14
2022-09-21T09:16:48.803Z,31.21
2022-09-21T09:19:28.843Z,31.13
2022-09-21T09:21:55.516Z,31.79
2022-09-21T09:24:30.828Z,31.48
2022-09-21T09:27:04.590Z,31.76
2022-09-21T09:29:54.194Z,31.84
2022-09-21T09:32:20.915Z,31.65
2022-09-21T09:34:55.152Z,31.94
2022-09-21T09:37:23.716Z,31.80
2022-09-21T09:39:59.494Z,31.62
2022-09-21T09:42:44.600Z,31.51
2022-09-21T09:45:31.871Z,31.67
2022-09-21T09:48:07.864Z,31.14
2022-09-21T09:50:35.389Z,30.95
2022-09-21T09:53:20.633Z,31.70
2022-09-21T09:55:48.956Z,31.70
2022-09-21T09:58:19.338Z,31.83
2022-09-21T10:00:46.317Z,31.73
2022-09-21T10:03:16.907Z,31.38
2022-09-21T10:05:43.335Z,31.02
2022-09-21T10:08:30.062Z,30.87
2022-09-21T10:10:56.458Z,30.88
2022-09-21T10:13:32.537Z,30.39
2022-09-21T10:16:00.221Z,29.84
2022-09-21T10:18:26.673Z,30.68
2022-09-21T10:20:57.172Z,31.47
2022-09-21T10:23:23.633Z,31.59
2022-09-21T10:25:53.900Z,30.27
2022-09-21T10:28:20.502Z,30.33
2022-09-21T10:34:16.045Z,30.44
2022-09-21T10:36:43.090Z,30.35
2022-09-21T10:39:16.305Z,29.74
2022-09-21T10:41:43.092Z,28.92
2022-09-21T10:44:15.196Z,28.52
2022-09-21T10:46:41.663Z,29.01
2022-09-21T10:49:13.616Z,28.86
2022-09-21T10:51:40.034Z,28.59
2022-09-21T10:54:09.709Z,29.22
2022-09-21T10:56:37.827Z,29.56
2022-09-21T10:59:19.649Z,29.75
2022-09-21T11:01:46.784Z,29.43
2022-09-21T11:04:16.012Z,28.77
2022-09-21T11:06:44.542Z,29.11
2022-09-21T11:09:29.940Z,28.36
2022-09-21T11:11:59.522Z,27.81
2022-09-21T11:14:37.817Z,27.24
2022-09-21T11:17:04.347Z,26.71
2022-09-21T11:19:42.393Z,25.88
2022-09-21T11:22:09.038Z,26.86
2022-09-21T11:24:44.428Z,27.00
2022-09-21T11:27:11.237Z,26.70
2022-09-21T11:29:57.935Z,26.33
2022-09-21T11:32:37.192Z,26.17
2022-09-21T11:35:17.007Z,25.98
2022-09-21T11:37:46.432Z,26.01
2022-09-21T11:40:33.280Z,26.14
2022-09-21T11:43:21.909Z,26.76
2022-09-21T11:46:11.592Z,27.19
2022-09-21T11:48:37.998Z,27.72
2022-09-21T11:51:16.904Z,27.97
2022-09-21T11:53:48.809Z,28.29
2022-09-21T11:56:18.238Z,28.30
2022-09-21T11:58:44.585Z,27.78
2022-09-21T12:01:23.460Z,27.94
2022-09-21T12:04:03.697Z,27.68
2022-09-21T12:06:33.027Z,27.71
2022-09-21T12:09:08.841Z,27.50
2022-09-21T12:11:38.044Z,27.74
2022-09-21T12:14:07.843Z,28.06
2022-09-21T12:16:46.807Z,28.11
2022-09-21T12:19:27.639Z,27.60
2022-09-21T12:22:00.543Z,27.14
2022-09-21T12:24:35.086Z,26.93
2022-09-21T12:27:03.020Z,26.96
2022-09-21T12:29:37.189Z,26.65
2022-09-21T12:32:03.599Z,26.80
2022-09-21T12:34:41.061Z,27.02
2022-09-21T12:37:19.130Z,27.08
2022-09-21T12:39:45.604Z,27.05
2022-09-21T12:42:15.072Z,26.66
2022-09-21T12:44:52.502Z,26.36
2022-09-21T12:47:34.359Z,26.28
2022-09-21T12:50:06.212Z,26.45
2022-09-21T12:52:33.216Z,26.45
2022-09-21T12:55:02.740Z,26.25
2022-09-21T12:58:04.533Z,26.45
2022-09-21T13:00:22.317Z,26.38
2022-09-21T13:02:48.712Z,26.25
2022-09-21T13:05:35.237Z,26.21
2022-09-21T13:08:25.403Z,26.14
2022-09-21T13:10:55.300Z,25.92
2022-09-21T13:13:28.361Z,26.02
2022-09-21T13:15:54.807Z,25.89
2022-09-21T13:18:29.731Z,25.88
2022-09-21T13:20:58.988Z,25.99
2022-09-21T13:23:32.279Z,25.99
2022-09-21T13:26:06.256Z,25.76
2022-09-21T13:28:51.849Z,25.69
2022-09-21T13:31:39.515Z,25.51
2022-09-21T13:34:07.451Z,25.50
2022-09-21T13:36:35.270Z,25.52
2022-09-21T13:39:15.467Z,25.42
2022-09-21T13:42:03.459Z,25.45
2022-09-21T13:44:28.324Z,25.34
2022-09-21T13:46:54.860Z,25.32
2022-09-21T13:49:25.585Z,25.40
2022-09-21T13:52:09.865Z,25.35
2022-09-21T13:54:38.811Z,24.98
2022-09-21T13:57:24.138Z,25.03
2022-09-21T14:00:07.690Z,25.06
2022-09-21T14:02:38.487Z,24.82
2022-09-21T14:05:07.777Z,25.08
2022-09-21T14:07:34.318Z,25.03
2022-09-21T14:10:07.743Z,25.01
2022-09-21T14:12:37.516Z,24.88
2022-09-21T14:15:12.593Z,24.88
2022-09-21T14:17:42.293Z,24.90
2022-09-21T14:20:30.866Z,24.89
2022-09-21T14:23:17.267Z,24.76
2022-09-21T14:25:47.862Z,24.56
2022-09-21T14:28:14.379Z,24.41
2022-09-21T14:30:41.762Z,24.38
2022-09-21T14:33:29.191Z,24.30
2022-09-21T14:35:55.866Z,24.20
2022-09-21T14:38:23.486Z,24.16
2022-09-21T14:40:50.953Z,24.07
2022-09-21T14:43:22.370Z,23.91
2022-09-21T14:45:57.274Z,23.90
2022-09-21T14:48:23.694Z,23.87
2022-09-21T14:51:16.299Z,23.73
2022-09-21T14:54:01.873Z,23.64
2022-09-21T14:56:51.719Z,23.56
2022-09-21T14:59:38.424Z,23.39
2022-09-21T15:02:14.466Z,23.43
2022-09-21T15:04:54.306Z,23.34
2022-09-21T15:07:58.678Z,23.23
2022-09-21T15:10:54.981Z,23.12
2022-09-21T15:13:24.546Z,22.89
2022-09-21T15:15:52.034Z,23.05
2022-09-21T15:18:20.524Z,22.97
2022-09-21T15:21:01.881Z,23.00
2022-09-21T15:23:29.338Z,22.93
2022-09-21T15:26:09.155Z,22.90
2022-09-21T15:28:57.991Z,22.84
2022-09-21T15:31:23.178Z,22.80
2022-09-21T15:33:50.283Z,22.73
2022-09-21T15:36:20.915Z,22.57
2022-09-21T15:38:48.321Z,22.52
2022-09-21T15:41:31.254Z,22.44
2022-09-21T15:43:58.360Z,22.34
2022-09-21T15:46:24.858Z,22.25
2022-09-21T15:48:52.308Z,22.15
2022-09-21T15:51:30.218Z,22.06
2022-09-21T15:54:11.390Z,21.95
2022-09-21T15:56:40.600Z,21.95
2022-09-21T15:59:09.955Z,21.90
2022-09-21T16:01:42.793Z,21.84
2022-09-21T16:04:13.292Z,21.77
2022-09-21T16:07:20.485Z,21.76
2022-09-21T16:09:46.922Z,21.66
2022-09-21T16:12:28.762Z,21.54
2022-09-21T16:15:03.889Z,21.49
2022-09-21T16:17:35.421Z,21.37
2022-09-21T16:20:10.562Z,21.24
2022-09-21T16:22:38.004Z,21.25
2022-09-21T16:25:13.481Z,21.20
2022-09-21T16:27:40.000Z,21.01
2022-09-21T16:30:06.803Z,21.02
2022-09-21T16:32:33.774Z,21.01
2022-09-21T16:35:20.570Z,20.97
2022-09-21T16:37:47.205Z,20.87
2022-09-21T16:40:14.235Z,20.83
2022-09-21T16:42:43.240Z,20.76
2022-09-21T16:45:11.647Z,20.68
2022-09-21T16:47:38.135Z,20.65
2022-09-21T16:50:09.412Z,20.63
2022-09-21T16:52:35.802Z,20.54
2022-09-21T16:55:02.468Z,20.48
2022-09-21T16:57:29.332Z,20.44
2022-09-21T16:59:56.005Z,20.28
2022-09-21T17:02:23.607Z,20.27
2022-09-21T17:04:50.045Z,20.28
2022-09-21T17:07:19.796Z,20.25
2022-09-21T17:09:47.814Z,20.18
2022-09-21T17:12:15.379Z,20.11
2022-09-21T17:14:46.410Z,20.06
2022-09-21T17:17:17.612Z,20.01
2022-09-21T17:19:46.496Z,19.91
2022-09-21T17:22:17.436Z,19.82
2022-09-21T17:24:51.362Z,19.77
2022-09-21T17:27:19.996Z,19.79
2022-09-21T17:29:49.881Z,19.77
2022-09-21T17:32:20.415Z,19.71
2022-09-21T17:34:50.191Z,19.69
2022-09-21T17:37:26.957Z,19.63
2022-09-21T17:39:54.060Z,19.58
2022-09-21T17:42:21.794Z,19.53
2022-09-21T17:44:59.790Z,19.49
2022-09-21T17:47:29.475Z,19.40
2022-09-21T17:50:08.365Z,19.41
2022-09-21T17:52:53.816Z,19.31
2022-09-21T17:55:20.577Z,19.21
2022-09-21T17:57:53.289Z,19.19
2022-09-21T18:00:20.834Z,19.15
2022-09-21T18:02:47.515Z,19.08
2022-09-21T18:05:19.546Z,19.08
2022-09-21T18:07:53.621Z,19.00
2022-09-21T18:10:21.266Z,18.90
2022-09-21T18:12:54.638Z,18.92
2022-09-21T18:15:33.471Z,18.73
2022-09-21T18:17:59.886Z,18.81
2022-09-21T18:20:26.368Z,18.78
2022-09-21T18:22:55.851Z,18.71
2022-09-21T18:25:27.581Z,18.68
2022-09-21T18:27:54.931Z,18.64
2022-09-21T18:30:21.400Z,18.63
2022-09-21T18:39:18.887Z,18.55
2022-09-21T18:41:50.511Z,18.48
2022-09-21T18:44:28.082Z,18.48
2022-09-21T18:47:03.921Z,18.48
2022-09-21T18:49:32.689Z,18.48
2022-09-21T18:52:02.146Z,18.42
2022-09-21T18:54:30.907Z,18.48
2022-09-21T18:57:01.927Z,18.45
2022-09-21T18:59:32.184Z,18.37
2022-09-21T19:02:00.729Z,18.36
2022-09-21T19:04:28.079Z,18.32
2022-09-21T19:06:56.789Z,18.34
2022-09-21T19:09:38.194Z,18.28
2022-09-21T19:12:07.436Z,18.22
2022-09-21T19:14:38.432Z,18.22
2022-09-21T19:17:09.807Z,18.15
2022-09-21T19:19:55.098Z,18.07
2022-09-21T19:22:21.615Z,18.08
2022-09-21T19:24:54.309Z,18.07
2022-09-21T19:27:32.491Z,18.13
2022-09-21T19:30:06.499Z,18.10
2022-09-21T19:32:34.818Z,18.02
2022-09-21T19:35:02.765Z,17.97
2022-09-21T19:37:29.555Z,18.06
2022-09-21T19:39:56.157Z,18.02
2022-09-21T19:42:33.504Z,17.96
2022-09-21T19:45:13.562Z,17.95
2022-09-21T19:47:43.099Z,17.89
2022-09-21T19:50:15.996Z,17.88
2022-09-21T19:52:42.994Z,17.84
2022-09-21T19:55:33.125Z,17.89
2022-09-21T19:58:18.466Z,17.85
2022-09-21T20:00:45.247Z,17.87
2022-09-21T20:03:31.257Z,17.89
2022-09-21T20:06:04.771Z,17.86
2022-09-21T20:08:42.922Z,17.77
2022-09-21T20:11:11.678Z,17.77
2022-09-21T20:13:42.454Z,17.75
2022-09-21T20:16:26.364Z,17.78
2022-09-21T20:19:13.213Z,17.76
2022-09-21T20:21:44.010Z,17.75
2022-09-21T20:24:15.618Z,17.72
2022-09-21T20:26:42.314Z,17.61
2022-09-21T20:29:08.977Z,17.60
2022-09-21T20:31:37.663Z,17.59
2022-09-21T20:34:04.128Z,17.62
2022-09-21T20:36:30.672Z,17.52
2022-09-21T20:38:57.834Z,17.50
2022-09-21T20:41:25.073Z,17.48
2022-09-21T20:43:54.036Z,17.39
2022-09-21T20:46:20.669Z,17.36
2022-09-21T20:48:47.164Z,17.26
2022-09-21T20:51:13.740Z,17.34
2022-09-21T20:53:40.328Z,17.34
2022-09-21T20:56:06.737Z,17.31
2022-09-21T20:58:33.343Z,17.29
2022-09-21T21:01:03.928Z,17.27
2022-09-21T21:03:30.641Z,17.23
2022-09-21T21:06:26.790Z,17.19
2022-09-21T21:08:53.224Z,17.17
2022-09-21T21:11:20.424Z,17.06
2022-09-21T21:13:47.509Z,17.06
2022-09-21T21:16:13.974Z,17.02
2022-09-21T21:18:40.867Z,16.95
2022-09-21T21:21:07.322Z,16.98
2022-09-21T21:23:56.053Z,16.87
2022-09-21T21:26:38.287Z,16.86
2022-09-21T21:29:09.290Z,16.90
2022-09-21T21:31:36.156Z,16.83
2022-09-21T21:34:02.627Z,16.73
2022-09-21T21:36:29.037Z,16.80
2022-09-21T21:38:55.579Z,16.71
2022-09-21T21:41:22.163Z,16.66
2022-09-21T21:43:48.668Z,16.61
2022-09-21T21:46:15.190Z,16.59
2022-09-21T21:48:41.715Z,16.54
2022-09-21T21:51:08.268Z,16.52
2022-09-21T21:53:35.588Z,16.48
2022-09-21T21:56:11.601Z,16.40
2022-09-21T21:58:38.033Z,16.34
2022-09-21T22:01:07.581Z,16.34
2022-09-21T22:03:34.141Z,16.31
2022-09-21T22:06:00.667Z,16.27
2022-09-21T22:08:27.510Z,16.22
2022-09-21T22:10:53.958Z,16.25
2022-09-21T22:13:20.571Z,16.22
2022-09-21T22:15:47.024Z,16.16
2022-09-21T22:18:13.489Z,16.14
2022-09-21T22:20:40.668Z,16.19
2022-09-21T22:23:07.083Z,16.20
2022-09-21T22:25:33.575Z,16.19
2022-09-21T22:28:00.302Z,16.22
2022-09-21T22:30:26.732Z,16.19
2022-09-21T22:32:53.151Z,16.17
2022-09-21T22:35:19.547Z,16.19
2022-09-21T22:37:45.980Z,16.23
2022-09-21T22:40:13.988Z,16.24
2022-09-21T22:42:40.442Z,16.14
2022-09-21T22:45:06.968Z,16.10
2022-09-21T22:47:33.342Z,16.10
2022-09-21T22:50:02.084Z,16.12
2022-09-21T22:52:28.585Z,16.10
2022-09-21T22:54:55.043Z,16.09
2022-09-21T22:57:21.457Z,16.05
2022-09-21T22:59:47.860Z,16.08
2022-09-21T23:02:14.365Z,16.10
2022-09-21T23:04:40.740Z,16.04
2022-09-21T23:07:07.194Z,16.07
2022-09-21T23:09:33.666Z,16.05
2022-09-21T23:12:00.521Z,16.02
2022-09-21T23:14:26.959Z,15.97
2022-09-21T23:16:53.434Z,15.92
2022-09-21T23:19:19.823Z,15.86
2022-09-21T23:21:46.983Z,15.79
2022-09-21T23:24:13.416Z,15.80
2022-09-21T23:26:39.853Z,15.76
2022-09-21T23:29:08.944Z,15.75
2022-09-21T23:31:35.501Z,15.80
2022-09-21T23:34:12.802Z,15.83
2022-09-21T23:36:39.416Z,15.83
2022-09-21T23:39:07.155Z,15.77
2022-09-21T23:41:34.573Z,15.68
2022-09-21T23:44:01.599Z,15.63
2022-09-21T23:46:32.405Z,15.64
2022-09-21T23:48:59.032Z,15.65
2022-09-21T23:51:25.493Z,15.61
2022-09-21T23:53:51.926Z,15.67
2022-09-21T23:56:19.896Z,15.66
2022-09-21T23:58:46.423Z,15.64
